createdAt,value
2023-03-17T00:00:23.554Z,8.67
2023-03-17T00:01:23.554Z,8.69
2023-03-17T00:02:23.589Z,8.74
2023-03-17T00:03:23.644Z,8.67
2023-03-17T00:04:23.544Z,8.70
2023-03-17T00:05:23.531Z,8.74
2023-03-17T00:06:23.524Z,8.70
2023-03-17T00:07:23.524Z,8.61
2023-03-17T00:08:23.517Z,8.63
2023-03-17T00:09:23.537Z,8.67
2023-03-17T00:10:23.509Z,8.61
2023-03-17T00:11:23.503Z,8.64
2023-03-17T00:12:23.501Z,8.66
2023-03-17T00:13:23.491Z,8.66
2023-03-17T00:14:23.487Z,8.66
2023-03-17T00:15:23.482Z,8.69
2023-03-17T00:16:23.493Z,8.61
2023-03-17T00:17:23.473Z,8.69
2023-03-17T00:18:23.467Z,8.64
2023-03-17T00:19:23.462Z,8.67
2023-03-17T00:20:23.456Z,8.63
2023-03-17T00:21:23.462Z,8.60
2023-03-17T00:22:23.447Z,8.61
2023-03-17T00:23:23.445Z,8.58
2023-03-17T00:24:23.436Z,8.55
2023-03-17T00:25:23.470Z,8.56
2023-03-17T00:26:23.438Z,8.61
2023-03-17T00:27:23.424Z,8.56
2023-03-17T00:28:23.422Z,8.63
2023-03-17T00:29:23.417Z,8.64
2023-03-17T00:30:23.427Z,8.49
2023-03-17T00:31:23.570Z,8.55
2023-03-17T00:32:23.398Z,8.56
2023-03-17T00:33:23.399Z,8.56
2023-03-17T00:34:23.472Z,8.56
2023-03-17T00:35:23.393Z,8.56
2023-03-17T00:36:23.379Z,8.61
2023-03-17T00:37:23.380Z,8.56
2023-03-17T00:38:23.370Z,8.51
2023-03-17T00:39:23.366Z,8.53
2023-03-17T00:40:23.359Z,8.56
2023-03-17T00:41:23.378Z,8.53
2023-03-17T00:42:23.351Z,8.55
2023-03-17T00:43:23.356Z,8.53
2023-03-17T00:44:23.336Z,8.60
2023-03-17T00:45:23.334Z,8.60
2023-03-17T00:46:23.383Z,8.53
2023-03-17T00:47:23.324Z,8.55
2023-03-17T00:48:23.323Z,8.61
2023-03-17T00:49:23.317Z,8.56
2023-03-17T00:50:23.306Z,8.52
2023-03-17T00:51:23.360Z,8.51
2023-03-17T00:52:23.305Z,8.52
2023-03-17T00:53:23.296Z,8.51
2023-03-17T00:54:23.296Z,8.51
2023-03-17T00:55:23.286Z,8.46
2023-03-17T00:56:23.283Z,8.46
2023-03-17T00:57:23.300Z,8.49
2023-03-17T00:58:23.268Z,8.53
2023-03-17T00:59:23.267Z,8.52
2023-03-17T01:00:23.265Z,8.49
2023-03-17T01:01:23.291Z,8.56
2023-03-17T01:02:23.292Z,8.51
2023-03-17T01:03:23.245Z,8.51
2023-03-17T01:04:23.253Z,8.52
2023-03-17T01:05:23.250Z,8.44
2023-03-17T01:06:23.230Z,8.45
2023-03-17T01:07:23.224Z,8.42
2023-03-17T01:08:23.220Z,8.42
2023-03-17T01:09:23.219Z,8.48
2023-03-17T01:10:23.212Z,8.48
2023-03-17T01:11:23.213Z,8.45
2023-03-17T01:12:23.201Z,8.41
2023-03-17T01:13:23.215Z,8.36
2023-03-17T01:14:23.199Z,8.42
2023-03-17T01:15:23.189Z,8.36
2023-03-17T01:16:23.204Z,8.46
2023-03-17T01:17:23.194Z,8.36
2023-03-17T01:18:23.319Z,8.37
2023-03-17T01:19:23.176Z,8.48
2023-03-17T01:20:23.161Z,8.37
2023-03-17T01:21:23.160Z,8.46
2023-03-17T01:22:23.152Z,8.34
2023-03-17T01:23:23.181Z,8.34
2023-03-17T01:24:23.141Z,8.34
2023-03-17T01:25:23.150Z,8.33
2023-03-17T01:26:25.716Z,8.46
2023-03-17T01:27:23.132Z,8.37
2023-03-17T01:28:23.338Z,8.31
2023-03-17T01:29:23.143Z,8.33
2023-03-17T01:30:23.114Z,8.33
2023-03-17T01:31:23.175Z,8.45
2023-03-17T01:32:23.121Z,8.37
2023-03-17T01:33:23.105Z,8.51
2023-03-17T01:34:23.104Z,8.42
2023-03-17T01:35:23.096Z,8.53
2023-03-17T01:36:23.084Z,8.48
2023-03-17T01:37:23.082Z,8.52
2023-03-17T01:38:23.086Z,8.53
2023-03-17T01:39:23.076Z,8.44
2023-03-17T01:40:23.065Z,8.53
2023-03-17T01:41:23.062Z,8.42
2023-03-17T01:42:23.060Z,8.49
2023-03-17T01:43:23.065Z,8.48
2023-03-17T01:44:23.048Z,8.51
2023-03-17T01:45:23.063Z,8.48
2023-03-17T01:46:23.061Z,8.56
2023-03-17T01:47:23.035Z,8.51
2023-03-17T01:48:23.034Z,8.52
2023-03-17T01:49:23.028Z,8.52
2023-03-17T01:50:23.017Z,8.60
2023-03-17T01:51:23.013Z,8.51
2023-03-17T01:52:23.020Z,8.58
2023-03-17T01:53:23.004Z,8.60
2023-03-17T01:54:23.004Z,8.60
2023-03-17T01:55:22.997Z,8.52
2023-03-17T01:56:22.991Z,8.52
2023-03-17T01:57:22.985Z,8.52
2023-03-17T01:58:22.983Z,8.53
2023-03-17T01:59:22.973Z,8.55
2023-03-17T02:00:22.969Z,8.51
2023-03-17T02:01:23.178Z,8.55
2023-03-17T02:02:22.958Z,8.55
2023-03-17T02:03:22.969Z,8.51
2023-03-17T02:04:23.028Z,8.53
2023-03-17T02:05:22.950Z,8.52
2023-03-17T02:06:22.941Z,8.48
2023-03-17T02:07:22.952Z,8.48
2023-03-17T02:08:22.935Z,8.52
2023-03-17T02:09:22.928Z,8.53
2023-03-17T02:10:22.920Z,8.49
2023-03-17T02:11:22.924Z,8.52
2023-03-17T02:12:22.911Z,8.56
2023-03-17T02:13:22.905Z,8.52
2023-03-17T02:14:22.900Z,8.52
2023-03-17T02:15:22.896Z,8.49
2023-03-17T02:16:22.946Z,8.53
2023-03-17T02:17:22.967Z,8.48
2023-03-17T02:18:22.880Z,8.51
2023-03-17T02:19:22.879Z,8.56
2023-03-17T02:20:22.869Z,8.48
2023-03-17T02:21:22.869Z,8.52
2023-03-17T02:22:22.859Z,8.52
2023-03-17T02:23:22.891Z,8.48
2023-03-17T02:24:22.849Z,8.46
2023-03-17T02:25:22.843Z,8.45
2023-03-17T02:26:23.090Z,8.46
2023-03-17T02:27:22.837Z,8.53
2023-03-17T02:28:22.832Z,8.52
2023-03-17T02:29:22.833Z,8.51
2023-03-17T02:30:22.819Z,8.52
2023-03-17T02:31:22.828Z,8.48
2023-03-17T02:32:22.825Z,8.49
2023-03-17T02:33:22.827Z,8.49
2023-03-17T02:34:22.800Z,8.46
2023-03-17T02:35:22.795Z,8.42
2023-03-17T02:36:22.851Z,8.53
2023-03-17T02:37:22.791Z,8.51
2023-03-17T02:38:22.789Z,8.52
2023-03-17T02:39:22.778Z,8.49
2023-03-17T02:40:22.773Z,8.46
2023-03-17T02:41:22.768Z,8.48
2023-03-17T02:42:22.764Z,8.42
2023-03-17T02:43:22.757Z,8.37
2023-03-17T02:44:22.758Z,8.34
2023-03-17T02:45:22.750Z,8.31
2023-03-17T02:46:22.845Z,8.34
2023-03-17T02:47:22.740Z,8.24
2023-03-17T02:48:22.738Z,8.24
2023-03-17T02:49:22.753Z,8.28
2023-03-17T02:50:22.728Z,8.18
2023-03-17T02:51:22.722Z,8.20
2023-03-17T02:52:22.718Z,8.23
2023-03-17T02:53:22.718Z,8.24
2023-03-17T02:54:22.710Z,8.20
2023-03-17T02:55:22.717Z,8.28
2023-03-17T02:56:22.698Z,8.27
2023-03-17T02:57:22.700Z,8.23
2023-03-17T02:58:22.688Z,8.24
2023-03-17T02:59:22.690Z,8.15
2023-03-17T03:00:22.690Z,8.16
2023-03-17T03:01:22.709Z,8.16
2023-03-17T03:02:22.723Z,8.19
2023-03-17T03:03:22.665Z,8.20
2023-03-17T03:04:22.663Z,8.10
2023-03-17T03:05:22.678Z,8.18
2023-03-17T03:06:22.651Z,8.15
2023-03-17T03:07:22.650Z,8.20
2023-03-17T03:08:22.641Z,8.20
2023-03-17T03:09:22.634Z,8.20
2023-03-17T03:10:22.631Z,8.09
2023-03-17T03:11:22.625Z,8.06
2023-03-17T03:12:22.620Z,8.05
2023-03-17T03:13:22.617Z,8.06
2023-03-17T03:14:22.618Z,8.06
2023-03-17T03:15:22.618Z,8.09
2023-03-17T03:16:22.611Z,8.13
2023-03-17T03:17:22.597Z,8.08
2023-03-17T03:18:22.595Z,8.06
2023-03-17T03:19:22.585Z,8.12
2023-03-17T03:20:22.591Z,8.10
2023-03-17T03:21:22.609Z,8.05
2023-03-17T03:22:22.583Z,8.03
2023-03-17T03:23:22.593Z,8.06
2023-03-17T03:24:22.568Z,8.01
2023-03-17T03:25:22.557Z,8.03
2023-03-17T03:26:22.555Z,7.97
2023-03-17T03:27:22.544Z,8.00
2023-03-17T03:28:22.543Z,8.00
2023-03-17T03:29:22.539Z,8.03
2023-03-17T03:30:22.542Z,7.97
2023-03-17T03:31:22.615Z,7.98
2023-03-17T03:32:22.523Z,7.95
2023-03-17T03:33:22.537Z,8.01
2023-03-17T03:34:22.515Z,8.00
2023-03-17T03:35:22.507Z,8.00
2023-03-17T03:36:22.523Z,8.03
2023-03-17T03:37:22.535Z,7.98
2023-03-17T03:38:22.499Z,8.03
2023-03-17T03:39:22.490Z,7.98
2023-03-17T03:40:22.484Z,8.00
2023-03-17T03:41:22.493Z,8.01
2023-03-17T03:42:22.474Z,7.97
2023-03-17T03:43:23.897Z,7.98
2023-03-17T03:44:22.468Z,8.00
2023-03-17T03:45:22.465Z,8.08
2023-03-17T03:46:22.457Z,8.06
2023-03-17T03:47:22.443Z,8.01
2023-03-17T03:48:22.445Z,8.08
2023-03-17T03:49:22.435Z,8.01
2023-03-17T03:50:22.436Z,7.98
2023-03-17T03:51:22.429Z,8.03
2023-03-17T03:52:22.426Z,7.98
2023-03-17T03:53:22.438Z,8.06
2023-03-17T03:54:22.426Z,8.00
2023-03-17T03:55:22.403Z,7.98
2023-03-17T03:56:22.399Z,8.10
2023-03-17T03:57:22.393Z,8.06
2023-03-17T03:58:22.392Z,8.10
2023-03-17T03:59:22.390Z,8.00
2023-03-17T04:00:22.381Z,8.00
2023-03-17T04:01:22.373Z,7.98
2023-03-17T04:02:22.462Z,8.01
2023-03-17T04:03:22.376Z,8.01
2023-03-17T04:04:22.397Z,7.97
2023-03-17T04:05:22.358Z,7.98
2023-03-17T04:06:22.350Z,7.97
2023-03-17T04:07:22.350Z,7.93
2023-03-17T04:08:22.344Z,7.90
2023-03-17T04:09:22.362Z,7.95
2023-03-17T04:10:22.330Z,7.94
2023-03-17T04:11:22.324Z,7.93
2023-03-17T04:12:22.328Z,7.87
2023-03-17T04:13:22.329Z,7.91
2023-03-17T04:14:22.311Z,7.95
2023-03-17T04:15:22.298Z,7.95
2023-03-17T04:16:22.343Z,7.93
2023-03-17T04:17:22.298Z,7.90
2023-03-17T04:18:22.295Z,7.91
2023-03-17T04:19:22.396Z,7.95
2023-03-17T04:20:22.284Z,7.94
2023-03-17T04:21:22.298Z,7.90
2023-03-17T04:22:22.266Z,7.88
2023-03-17T04:23:22.263Z,7.90
2023-03-17T04:24:22.276Z,7.90
2023-03-17T04:25:22.275Z,7.88
2023-03-17T04:26:22.249Z,7.87
2023-03-17T04:27:22.239Z,7.90
2023-03-17T04:28:22.238Z,7.98
2023-03-17T04:29:22.230Z,7.93
2023-03-17T04:30:22.224Z,7.91
2023-03-17T04:31:22.621Z,7.85
2023-03-17T04:32:22.221Z,7.95
2023-03-17T04:33:22.212Z,7.95
2023-03-17T04:34:22.208Z,7.93
2023-03-17T04:35:22.199Z,7.88
2023-03-17T04:36:22.198Z,7.91
2023-03-17T04:37:22.192Z,7.88
2023-03-17T04:38:22.190Z,7.87
2023-03-17T04:39:22.181Z,7.91
2023-03-17T04:40:22.181Z,7.82
2023-03-17T04:41:22.213Z,7.82
2023-03-17T04:42:22.173Z,7.83
2023-03-17T04:43:22.161Z,7.82
2023-03-17T04:44:22.157Z,7.87
2023-03-17T04:45:22.154Z,7.83
2023-03-17T04:46:22.147Z,7.90
2023-03-17T04:47:22.141Z,7.79
2023-03-17T04:48:22.142Z,7.77
2023-03-17T04:49:22.133Z,7.83
2023-03-17T04:50:22.133Z,7.82
2023-03-17T04:51:22.130Z,7.77
2023-03-17T04:52:22.120Z,7.80
2023-03-17T04:53:22.116Z,7.82
2023-03-17T04:54:22.108Z,7.79
2023-03-17T04:55:22.104Z,7.73
2023-03-17T04:56:22.105Z,7.76
2023-03-17T04:57:22.118Z,7.79
2023-03-17T04:58:30.484Z,7.73
2023-03-17T04:59:22.083Z,7.77
2023-03-17T05:00:22.085Z,7.79
2023-03-17T05:01:22.144Z,7.72
2023-03-17T05:02:22.156Z,7.82
2023-03-17T05:03:27.287Z,7.80
2023-03-17T05:04:31.315Z,7.77
2023-03-17T05:05:22.056Z,7.79
2023-03-17T05:06:22.051Z,7.77
2023-03-17T05:07:22.041Z,7.85
2023-03-17T05:08:22.043Z,7.76
2023-03-17T05:09:22.032Z,7.80
2023-03-17T05:10:22.030Z,7.87
2023-03-17T05:11:22.029Z,7.79
2023-03-17T05:12:22.025Z,7.80
2023-03-17T05:13:22.116Z,7.79
2023-03-17T05:14:22.022Z,7.79
2023-03-17T05:15:22.004Z,7.80
2023-03-17T05:16:22.069Z,7.73
2023-03-17T05:17:22.018Z,7.77
2023-03-17T05:18:22.000Z,7.83
2023-03-17T05:19:21.988Z,7.70
2023-03-17T05:20:21.981Z,7.69
2023-03-17T05:21:22.004Z,7.80
2023-03-17T05:22:21.967Z,7.72
2023-03-17T05:23:21.966Z,7.72
2023-03-17T05:24:21.964Z,7.73
2023-03-17T05:25:21.951Z,7.72
2023-03-17T05:26:21.949Z,7.75
2023-03-17T05:27:21.948Z,7.85
2023-03-17T05:28:21.951Z,7.75
2023-03-17T05:29:21.952Z,7.75
2023-03-17T05:30:21.935Z,7.83
2023-03-17T05:31:21.966Z,7.72
2023-03-17T05:32:22.322Z,7.80
2023-03-17T05:33:21.943Z,7.87
2023-03-17T05:34:21.913Z,7.76
2023-03-17T05:35:21.909Z,7.79
2023-03-17T05:36:21.902Z,7.76
2023-03-17T05:37:21.893Z,7.69
2023-03-17T05:38:21.892Z,7.75
2023-03-17T05:39:21.887Z,7.75
2023-03-17T05:40:23.780Z,7.69
2023-03-17T05:41:21.884Z,7.72
2023-03-17T05:42:21.876Z,7.79
2023-03-17T05:43:21.891Z,7.66
2023-03-17T05:44:21.870Z,7.75
2023-03-17T05:45:21.876Z,7.79
2023-03-17T05:46:21.904Z,7.75
2023-03-17T05:47:21.845Z,7.73
2023-03-17T05:48:21.840Z,7.70
2023-03-17T05:49:21.834Z,7.69
2023-03-17T05:50:21.844Z,7.66
2023-03-17T05:51:21.824Z,7.75
2023-03-17T05:52:21.819Z,7.63
2023-03-17T05:53:21.816Z,7.61
2023-03-17T05:54:21.809Z,7.63
2023-03-17T05:55:21.803Z,7.66
2023-03-17T05:56:21.803Z,7.63
2023-03-17T05:57:21.795Z,7.67
2023-03-17T05:58:21.795Z,7.58
2023-03-17T05:59:21.787Z,7.61
2023-03-17T06:00:21.797Z,7.57
2023-03-17T06:01:21.794Z,7.58
2023-03-17T06:02:21.813Z,7.58
2023-03-17T06:03:21.781Z,7.57
2023-03-17T06:04:21.764Z,7.67
2023-03-17T06:05:21.757Z,7.48
2023-03-17T06:06:21.755Z,7.48
2023-03-17T06:07:21.748Z,7.47
2023-03-17T06:08:21.761Z,7.53
2023-03-17T06:09:21.742Z,7.54
2023-03-17T06:10:21.736Z,7.50
2023-03-17T06:11:21.723Z,7.50
2023-03-17T06:12:21.723Z,7.60
2023-03-17T06:13:21.718Z,7.47
2023-03-17T06:14:21.713Z,7.60
2023-03-17T06:15:21.714Z,7.56
2023-03-17T06:16:21.812Z,7.66
2023-03-17T06:17:21.721Z,7.60
2023-03-17T06:18:21.694Z,7.58
2023-03-17T06:19:21.690Z,7.50
2023-03-17T06:20:21.685Z,7.53
2023-03-17T06:21:21.687Z,7.69
2023-03-17T06:22:21.687Z,7.60
2023-03-17T06:23:21.682Z,7.54
2023-03-17T06:24:21.668Z,7.61
2023-03-17T06:25:21.668Z,7.72
2023-03-17T06:26:21.654Z,7.72
2023-03-17T06:27:21.654Z,7.66
2023-03-17T06:28:21.646Z,7.73
2023-03-17T06:29:21.647Z,7.82
2023-03-17T06:30:21.638Z,7.76
2023-03-17T06:31:21.683Z,7.82
2023-03-17T06:32:21.626Z,7.76
2023-03-17T06:33:21.640Z,7.85
2023-03-17T06:34:21.616Z,7.91
2023-03-17T06:35:21.654Z,7.94
2023-03-17T06:36:21.608Z,7.91
2023-03-17T06:37:21.600Z,7.87
2023-03-17T06:38:21.594Z,7.90
2023-03-17T06:39:21.595Z,7.90
2023-03-17T06:40:21.605Z,7.94
2023-03-17T06:41:21.581Z,7.95
2023-03-17T06:42:21.576Z,8.03
2023-03-17T06:43:21.568Z,8.00
2023-03-17T06:44:21.568Z,8.10
2023-03-17T06:45:21.557Z,8.13
2023-03-17T06:46:21.623Z,8.09
2023-03-17T06:47:21.754Z,8.05
2023-03-17T06:48:21.546Z,8.12
2023-03-17T06:49:21.559Z,8.20
2023-03-17T06:50:21.532Z,8.24
2023-03-17T06:51:21.531Z,8.26
2023-03-17T06:52:21.522Z,8.24
2023-03-17T06:53:21.526Z,8.18
2023-03-17T06:54:21.516Z,8.23
2023-03-17T06:55:21.517Z,8.31
2023-03-17T06:56:29.832Z,8.36
2023-03-17T06:57:21.509Z,8.38
2023-03-17T06:58:21.505Z,8.34
2023-03-17T06:59:21.498Z,8.48
2023-03-17T07:00:21.485Z,8.44
2023-03-17T07:01:21.520Z,8.52
2023-03-17T07:02:21.477Z,8.46
2023-03-17T07:03:21.472Z,8.49
2023-03-17T07:04:21.605Z,8.52
2023-03-17T07:05:21.485Z,8.53
2023-03-17T07:06:21.454Z,8.55
2023-03-17T07:07:21.451Z,8.56
2023-03-17T07:08:21.447Z,8.64
2023-03-17T07:09:21.448Z,8.67
2023-03-17T07:10:21.434Z,8.71
2023-03-17T07:11:21.439Z,8.78
2023-03-17T07:12:21.425Z,8.70
2023-03-17T07:13:21.431Z,8.71
2023-03-17T07:14:21.415Z,8.66
2023-03-17T07:15:21.419Z,8.79
2023-03-17T07:16:21.537Z,8.84
2023-03-17T07:17:21.413Z,8.79
2023-03-17T07:18:21.401Z,8.76
2023-03-17T07:19:21.393Z,8.84
2023-03-17T07:20:21.406Z,8.82
2023-03-17T07:21:21.423Z,8.92
2023-03-17T07:22:21.388Z,8.94
2023-03-17T07:23:21.384Z,8.99
2023-03-17T07:24:21.369Z,9.00
2023-03-17T07:25:21.365Z,9.06
2023-03-17T07:26:21.372Z,9.06
2023-03-17T07:27:23.053Z,9.16
2023-03-17T07:28:21.362Z,9.14
2023-03-17T07:29:21.379Z,9.26
2023-03-17T07:30:21.372Z,9.29
2023-03-17T07:31:21.412Z,9.23
2023-03-17T07:32:21.351Z,9.40
2023-03-17T07:33:21.420Z,9.44
2023-03-17T07:34:21.328Z,9.44
2023-03-17T07:35:21.367Z,9.59
2023-03-17T07:36:21.316Z,9.65
2023-03-17T07:37:21.341Z,9.69
2023-03-17T07:38:21.308Z,9.89
2023-03-17T07:39:21.308Z,9.94
2023-03-17T07:40:21.327Z,9.95
2023-03-17T07:41:21.347Z,9.97
2023-03-17T07:42:21.293Z,10.07
2023-03-17T07:43:21.287Z,10.10
2023-03-17T07:44:21.276Z,10.12
2023-03-17T07:45:21.276Z,10.16
2023-03-17T07:47:21.279Z,10.22
2023-03-17T07:48:21.293Z,10.35
2023-03-17T07:49:38.114Z,10.33
2023-03-17T07:50:21.263Z,10.34
2023-03-17T07:51:21.249Z,10.38
2023-03-17T07:52:21.253Z,10.41
2023-03-17T07:53:21.272Z,10.53
2023-03-17T07:54:21.274Z,10.56
2023-03-17T07:55:21.231Z,10.59
2023-03-17T07:56:21.232Z,10.56
2023-03-17T07:57:21.291Z,10.72
2023-03-17T07:58:21.227Z,10.69
2023-03-17T07:59:21.228Z,10.74
2023-03-17T08:00:21.234Z,10.71
2023-03-17T08:01:21.217Z,10.71
2023-03-17T08:02:21.284Z,10.68
2023-03-17T08:03:21.246Z,10.74
2023-03-17T08:04:21.221Z,10.74
2023-03-17T08:05:21.197Z,10.72
2023-03-17T08:06:21.191Z,10.67
2023-03-17T08:07:21.187Z,10.67
2023-03-17T08:08:21.187Z,10.68
2023-03-17T08:09:21.234Z,10.61
2023-03-17T08:10:21.209Z,10.54
2023-03-17T08:12:21.176Z,10.54
2023-03-17T08:13:21.178Z,10.44
2023-03-17T08:14:21.184Z,10.37
2023-03-17T08:15:21.206Z,10.48
2023-03-17T08:16:21.215Z,10.44
2023-03-17T08:17:21.153Z,10.35
2023-03-17T08:18:21.153Z,10.41
2023-03-17T08:19:21.153Z,10.40
2023-03-17T08:20:21.179Z,10.40
2023-03-17T08:21:21.158Z,10.37
2023-03-17T08:22:21.151Z,10.40
2023-03-17T08:23:21.160Z,10.37
2023-03-17T08:24:21.167Z,10.38
2023-03-17T08:25:21.142Z,10.44
2023-03-17T08:26:21.122Z,10.42
2023-03-17T08:27:21.134Z,10.48
2023-03-17T08:28:21.115Z,10.59
2023-03-17T08:29:21.157Z,10.49
2023-03-17T08:30:21.111Z,10.61
2023-03-17T08:31:21.267Z,10.61
2023-03-17T08:32:21.139Z,10.60
2023-03-17T08:33:21.157Z,10.63
2023-03-17T08:34:21.090Z,10.67
2023-03-17T08:35:21.125Z,10.56
2023-03-17T08:36:21.094Z,10.69
2023-03-17T08:37:21.082Z,10.57
2023-03-17T08:38:21.077Z,10.74
2023-03-17T08:39:21.083Z,10.72
2023-03-17T08:40:21.085Z,10.74
2023-03-17T08:41:21.087Z,10.78
2023-03-17T08:42:21.063Z,10.84
2023-03-17T08:43:21.053Z,10.81
2023-03-17T08:44:21.054Z,10.79
2023-03-17T08:45:21.046Z,10.79
2023-03-17T08:46:21.219Z,10.79
2023-03-17T08:47:21.043Z,10.84
2023-03-17T08:48:21.037Z,10.82
2023-03-17T08:49:21.038Z,10.86
2023-03-17T08:50:21.036Z,10.93
2023-03-17T08:51:24.225Z,10.92
2023-03-17T08:52:21.020Z,11.07
2023-03-17T08:53:21.019Z,10.94
2023-03-17T08:54:21.013Z,10.93
2023-03-17T08:55:21.013Z,11.00
2023-03-17T08:56:21.006Z,11.00
2023-03-17T08:57:21.020Z,11.02
2023-03-17T08:58:21.011Z,11.00
2023-03-17T08:59:20.996Z,10.97
2023-03-17T09:00:20.989Z,11.05
2023-03-17T09:01:21.095Z,11.02
2023-03-17T09:02:21.020Z,11.04
2023-03-17T09:03:20.981Z,11.14
2023-03-17T09:04:20.976Z,11.11
2023-03-17T09:05:20.973Z,11.12
2023-03-17T09:06:20.969Z,11.23
2023-03-17T09:07:20.968Z,11.17
2023-03-17T09:08:20.957Z,11.27
2023-03-17T09:09:20.961Z,11.30
2023-03-17T09:10:20.958Z,11.27
2023-03-17T09:11:20.949Z,11.37
2023-03-17T09:12:20.954Z,11.41
2023-03-17T09:13:20.963Z,11.41
2023-03-17T09:14:20.935Z,11.50
2023-03-17T09:15:20.956Z,11.48
2023-03-17T09:16:20.986Z,11.55
2023-03-17T09:17:20.934Z,11.60
2023-03-17T09:18:22.166Z,11.51
2023-03-17T09:19:20.930Z,11.51
2023-03-17T09:20:20.925Z,11.59
2023-03-17T09:21:20.912Z,11.59
2023-03-17T09:22:20.916Z,11.52
2023-03-17T09:23:20.915Z,11.60
2023-03-17T09:24:20.902Z,11.62
2023-03-17T09:25:20.900Z,11.63
2023-03-17T09:26:20.888Z,11.66
2023-03-17T09:27:20.890Z,11.57
2023-03-17T09:28:20.883Z,11.60
2023-03-17T09:29:20.898Z,11.62
2023-03-17T09:30:20.874Z,11.65
2023-03-17T09:31:20.896Z,11.70
2023-03-17T09:32:20.866Z,11.65
2023-03-17T09:33:20.867Z,11.69
2023-03-17T09:34:20.860Z,11.73
2023-03-17T09:35:20.858Z,11.75
2023-03-17T09:36:20.851Z,11.65
2023-03-17T09:37:20.878Z,11.75
2023-03-17T09:38:20.856Z,11.78
2023-03-17T09:39:20.849Z,11.80
2023-03-17T09:40:20.843Z,11.81
2023-03-17T09:41:20.849Z,11.81
2023-03-17T09:42:20.830Z,11.81
2023-03-17T09:43:20.829Z,11.83
2023-03-17T09:44:20.832Z,11.81
2023-03-17T09:45:20.857Z,11.87
2023-03-17T09:46:20.899Z,11.87
2023-03-17T09:47:20.816Z,11.88
2023-03-17T09:48:20.811Z,11.90
2023-03-17T09:49:20.810Z,11.99
2023-03-17T09:50:20.801Z,12.00
2023-03-17T09:51:20.799Z,11.90
2023-03-17T09:52:20.797Z,11.84
2023-03-17T09:53:20.791Z,11.84
2023-03-17T09:54:20.789Z,11.84
2023-03-17T09:55:20.785Z,11.94
2023-03-17T09:56:20.784Z,11.97
2023-03-17T09:57:20.825Z,12.07
2023-03-17T09:58:20.772Z,12.02
2023-03-17T09:59:20.779Z,11.99
2023-03-17T10:00:20.774Z,12.09
2023-03-17T10:01:20.906Z,12.12
2023-03-17T10:02:20.766Z,12.28
2023-03-17T10:03:20.756Z,12.28
2023-03-17T10:04:20.750Z,12.27
2023-03-17T10:05:20.821Z,12.35
2023-03-17T10:06:20.743Z,12.35
2023-03-17T10:07:20.746Z,12.37
2023-03-17T10:08:30.823Z,12.37
2023-03-17T10:09:20.737Z,12.39
2023-03-17T10:10:20.730Z,12.37
2023-03-17T10:11:20.728Z,12.35
2023-03-17T10:12:20.725Z,12.37
2023-03-17T10:13:20.731Z,12.47
2023-03-17T10:14:20.718Z,12.47
2023-03-17T10:15:20.712Z,12.39
2023-03-17T10:16:20.882Z,12.54
2023-03-17T10:17:20.726Z,12.54
2023-03-17T10:18:20.701Z,12.47
2023-03-17T10:19:20.702Z,12.47
2023-03-17T10:20:20.699Z,12.53
2023-03-17T10:21:20.698Z,12.46
2023-03-17T10:22:20.693Z,12.61
2023-03-17T10:23:20.686Z,12.61
2023-03-17T10:24:20.683Z,12.50
2023-03-17T10:25:20.686Z,12.62
2023-03-17T10:26:20.675Z,12.62
2023-03-17T10:27:20.671Z,12.60
2023-03-17T10:28:20.672Z,12.58
2023-03-17T10:29:20.666Z,12.61
2023-03-17T10:30:20.711Z,12.64
2023-03-17T10:31:20.717Z,12.62
2023-03-17T10:32:20.661Z,12.68
2023-03-17T10:33:20.673Z,12.70
2023-03-17T10:34:20.647Z,12.82
2023-03-17T10:35:20.655Z,12.75
2023-03-17T10:36:20.642Z,12.86
2023-03-17T10:37:20.642Z,12.85
2023-03-17T10:38:20.636Z,12.72
2023-03-17T10:39:20.638Z,12.75
2023-03-17T10:40:20.698Z,12.76
2023-03-17T10:41:20.633Z,12.75
2023-03-17T10:42:20.625Z,12.79
2023-03-17T10:43:20.723Z,12.80
2023-03-17T10:44:20.625Z,12.75
2023-03-17T10:45:20.617Z,12.76
2023-03-17T10:46:20.628Z,12.83
2023-03-17T10:47:20.621Z,12.91
2023-03-17T10:48:20.614Z,12.82
2023-03-17T10:49:20.621Z,12.85
2023-03-17T10:50:20.594Z,12.80
2023-03-17T10:51:20.592Z,12.85
2023-03-17T10:52:20.597Z,12.91
2023-03-17T10:53:20.591Z,12.95
2023-03-17T10:54:20.590Z,12.93
2023-03-17T10:55:20.595Z,12.97
2023-03-17T10:56:20.577Z,13.09
2023-03-17T10:57:20.612Z,13.13
2023-03-17T10:58:20.575Z,13.11
2023-03-17T10:59:20.591Z,13.12
2023-03-17T11:00:20.570Z,13.18
2023-03-17T11:01:20.676Z,13.20
2023-03-17T11:02:20.563Z,13.23
2023-03-17T11:03:20.555Z,13.27
2023-03-17T11:04:20.698Z,13.28
2023-03-17T11:05:20.590Z,13.37
2023-03-17T11:06:20.550Z,13.44
2023-03-17T11:07:20.548Z,13.50
2023-03-17T11:08:20.542Z,13.57
2023-03-17T11:09:20.537Z,13.50
2023-03-17T11:10:20.537Z,13.57
2023-03-17T11:11:21.318Z,13.67
2023-03-17T11:12:20.529Z,13.57
2023-03-17T11:13:20.531Z,13.70
2023-03-17T11:14:20.528Z,13.60
2023-03-17T11:15:20.521Z,13.62
2023-03-17T11:16:20.568Z,13.62
2023-03-17T11:17:20.513Z,13.62
2023-03-17T11:18:20.513Z,13.74
2023-03-17T11:19:20.507Z,13.79
2023-03-17T11:20:20.505Z,13.74
2023-03-17T11:21:20.522Z,13.68
2023-03-17T11:22:20.502Z,13.71
2023-03-17T11:23:20.496Z,13.63
2023-03-17T11:24:20.502Z,13.68
2023-03-17T11:25:20.494Z,13.74
2023-03-17T11:26:20.485Z,13.68
2023-03-17T11:27:20.484Z,13.72
2023-03-17T11:28:20.483Z,13.72
2023-03-17T11:29:20.477Z,13.78
2023-03-17T11:30:20.502Z,13.77
2023-03-17T11:31:20.503Z,13.87
2023-03-17T11:32:20.481Z,13.90
2023-03-17T11:33:20.468Z,13.81
2023-03-17T11:34:20.460Z,13.92
2023-03-17T11:35:20.458Z,13.83
2023-03-17T11:36:20.460Z,13.85
2023-03-17T11:37:20.475Z,13.96
2023-03-17T11:38:20.458Z,13.95
2023-03-17T11:39:20.448Z,13.95
2023-03-17T11:40:20.448Z,14.05
2023-03-17T11:41:20.456Z,14.04
2023-03-17T11:42:20.449Z,14.03
2023-03-17T11:43:20.441Z,14.00
2023-03-17T11:44:20.433Z,14.05
2023-03-17T11:45:20.430Z,14.07
2023-03-17T11:46:20.494Z,14.12
2023-03-17T11:47:20.430Z,14.12
2023-03-17T11:48:20.438Z,14.07
2023-03-17T11:49:20.446Z,14.05
2023-03-17T11:50:20.461Z,14.00
2023-03-17T11:51:20.411Z,14.04
2023-03-17T11:52:20.418Z,14.12
2023-03-17T11:53:20.600Z,14.14
2023-03-17T11:54:20.409Z,14.17
2023-03-17T11:55:20.404Z,14.18
2023-03-17T11:56:20.432Z,14.22
2023-03-17T11:57:20.407Z,14.26
2023-03-17T11:58:20.400Z,14.15
2023-03-17T11:59:20.389Z,14.22
2023-03-17T12:00:20.399Z,14.23
2023-03-17T12:01:20.385Z,14.17
2023-03-17T12:02:20.382Z,14.22
2023-03-17T12:03:20.426Z,14.26
2023-03-17T12:04:20.436Z,14.29
2023-03-17T12:05:20.368Z,14.20
2023-03-17T12:06:20.367Z,14.22
2023-03-17T12:07:20.360Z,14.22
2023-03-17T12:08:20.359Z,14.23
2023-03-17T12:09:20.373Z,14.20
2023-03-17T12:10:20.358Z,14.23
2023-03-17T12:11:20.383Z,14.20
2023-03-17T12:12:20.384Z,14.23
2023-03-17T12:13:20.461Z,14.28
2023-03-17T12:14:20.358Z,14.15
2023-03-17T12:15:20.344Z,14.18
2023-03-17T12:16:20.336Z,14.18
2023-03-17T12:17:20.334Z,14.29
2023-03-17T12:18:20.331Z,14.28
2023-03-17T12:19:20.328Z,14.17
2023-03-17T12:20:20.328Z,14.18
2023-03-17T12:21:20.324Z,14.29
2023-03-17T12:22:20.320Z,14.26
2023-03-17T12:23:20.370Z,14.23
2023-03-17T12:24:20.316Z,14.17
2023-03-17T12:25:20.332Z,14.14
2023-03-17T12:26:20.309Z,14.28
2023-03-17T12:27:20.304Z,14.26
2023-03-17T12:28:20.316Z,14.32
2023-03-17T12:29:20.299Z,14.32
2023-03-17T12:30:20.295Z,14.32
2023-03-17T12:31:20.353Z,14.40
2023-03-17T12:32:20.291Z,14.32
2023-03-17T12:33:20.287Z,14.37
2023-03-17T12:34:20.286Z,14.40
2023-03-17T12:35:20.284Z,14.43
2023-03-17T12:36:20.281Z,14.43
2023-03-17T12:37:20.627Z,14.40
2023-03-17T12:38:20.278Z,14.43
2023-03-17T12:39:20.273Z,14.47
2023-03-17T12:40:20.290Z,14.44
2023-03-17T12:41:20.289Z,14.43
2023-03-17T12:42:20.265Z,14.33
2023-03-17T12:43:20.264Z,14.35
2023-03-17T12:44:20.264Z,14.36
2023-03-17T12:45:20.255Z,14.36
2023-03-17T12:46:20.282Z,14.37
2023-03-17T12:47:20.250Z,14.37
2023-03-17T12:48:20.251Z,14.45
2023-03-17T12:49:20.254Z,14.43
2023-03-17T12:50:20.247Z,14.40
2023-03-17T12:51:20.240Z,14.41
2023-03-17T12:52:20.239Z,14.48
2023-03-17T12:53:20.335Z,14.43
2023-03-17T12:54:20.238Z,14.47
2023-03-17T12:55:20.237Z,14.44
2023-03-17T12:56:20.228Z,14.53
2023-03-17T12:57:20.246Z,14.54
2023-03-17T12:58:20.224Z,14.55
2023-03-17T12:59:20.219Z,14.53
2023-03-17T13:00:20.221Z,14.51
2023-03-17T13:01:20.266Z,14.51
2023-03-17T13:02:20.224Z,14.68
2023-03-17T13:03:20.447Z,14.66
2023-03-17T13:04:20.208Z,14.58
2023-03-17T13:05:20.210Z,14.66
2023-03-17T13:06:20.205Z,14.65
2023-03-17T13:07:20.201Z,14.60
2023-03-17T13:08:20.217Z,14.45
2023-03-17T13:09:20.200Z,14.58